createdAt,value
2023-10-20T00:02:28.757Z,100880.68
2023-10-20T00:04:56.026Z,100882.88
2023-10-20T00:07:23.224Z,100880.45
2023-10-20T00:09:53.944Z,100882.70
2023-10-20T00:12:20.999Z,100886.08
2023-10-20T00:14:48.047Z,100890.52
2023-10-20T00:17:15.129Z,100884.96
2023-10-20T00:19:42.028Z,100886.85
2023-10-20T00:22:08.975Z,100884.33
2023-10-20T00:24:36.129Z,100888.54
2023-10-20T00:27:04.091Z,100884.44
2023-10-20T00:29:31.097Z,100883.84
2023-10-20T00:31:58.939Z,100879.96
2023-10-20T00:34:26.059Z,100875.09
2023-10-20T00:36:53.103Z,100876.20
2023-10-20T00:39:20.064Z,100872.13
2023-10-20T00:41:46.992Z,100867.59
2023-10-20T00:44:15.232Z,100865.58
2023-10-20T00:46:44.053Z,100865.05
2023-10-20T00:49:12.060Z,100864.17
2023-10-20T00:51:40.193Z,100863.31
2023-10-20T00:54:07.357Z,100866.54
2023-10-20T00:56:34.308Z,100861.40
2023-10-20T00:59:01.256Z,100859.31
2023-10-20T01:01:28.300Z,100860.75
2023-10-20T01:03:55.920Z,100856.87
2023-10-20T01:06:22.990Z,100855.64
2023-10-20T01:08:56.103Z,100853.16
2023-10-20T01:11:25.127Z,100848.89
2023-10-20T01:13:51.976Z,100845.48
2023-10-20T01:16:22.019Z,100840.21
2023-10-20T01:18:49.179Z,100827.16
2023-10-20T01:21:16.344Z,100819.23
2023-10-20T01:23:43.543Z,100811.99
2023-10-20T01:26:10.787Z,100801.95
2023-10-20T01:28:38.298Z,100802.68
2023-10-20T01:31:05.238Z,100794.41
2023-10-20T01:33:32.223Z,100796.25
2023-10-20T01:35:59.124Z,100800.68
2023-10-20T01:38:26.053Z,100796.24
2023-10-20T01:40:52.907Z,100799.45
2023-10-20T01:43:19.992Z,100801.52
2023-10-20T01:45:46.904Z,100802.75
2023-10-20T01:48:14.057Z,100795.00
2023-10-20T01:50:41.156Z,100785.60
2023-10-20T01:53:08.742Z,100783.88
2023-10-20T01:55:35.712Z,100782.30
2023-10-20T01:58:02.647Z,100780.92
2023-10-20T02:00:29.802Z,100778.96
2023-10-20T02:02:56.961Z,100782.13
2023-10-20T02:05:24.085Z,100778.97
2023-10-20T02:07:50.941Z,100773.30
2023-10-20T02:10:17.892Z,100767.98
2023-10-20T02:12:44.837Z,100769.39
2023-10-20T02:15:12.284Z,100772.52
2023-10-20T02:17:39.948Z,100774.77
2023-10-20T02:20:07.883Z,100770.04
2023-10-20T02:22:34.875Z,100762.30
2023-10-20T02:25:01.810Z,100763.02
2023-10-20T02:27:29.382Z,100755.56
2023-10-20T02:29:58.923Z,100758.90
2023-10-20T02:32:25.856Z,100755.55
2023-10-20T02:34:52.857Z,100754.98
2023-10-20T02:37:19.859Z,100756.04
2023-10-20T02:39:47.464Z,100756.01
2023-10-20T02:42:14.514Z,100748.85
2023-10-20T02:44:41.558Z,100749.73
2023-10-20T02:47:08.909Z,100753.20
2023-10-20T02:49:36.279Z,100751.67
2023-10-20T02:52:03.411Z,100744.60
2023-10-20T02:54:30.734Z,100748.55
2023-10-20T02:56:57.810Z,100749.23
2023-10-20T02:59:25.255Z,100749.00
2023-10-20T03:01:54.902Z,100751.61
2023-10-20T03:04:22.187Z,100752.80
2023-10-20T03:06:49.689Z,100748.73
2023-10-20T03:09:16.546Z,100749.58
2023-10-20T03:11:44.445Z,100745.81
2023-10-20T03:14:12.115Z,100744.16
2023-10-20T03:16:43.660Z,100745.52
2023-10-20T03:19:12.618Z,100743.02
2023-10-20T03:21:40.160Z,100739.83
2023-10-20T03:24:07.623Z,100738.77
2023-10-20T03:26:34.742Z,100735.49
2023-10-20T03:29:02.041Z,100733.17
2023-10-20T03:31:29.098Z,100729.10
2023-10-20T03:33:57.954Z,100723.01
2023-10-20T03:36:24.898Z,100724.85
2023-10-20T03:38:51.744Z,100725.94
2023-10-20T03:41:18.860Z,100721.69
2023-10-20T03:43:46.058Z,100719.02
2023-10-20T03:46:14.784Z,100721.46
2023-10-20T03:48:42.089Z,100725.31
2023-10-20T03:51:11.869Z,100724.24
2023-10-20T03:53:58.698Z,100728.67
2023-10-20T03:56:25.676Z,100732.52
2023-10-20T03:58:52.790Z,100738.29
2023-10-20T04:01:20.076Z,100733.35
2023-10-20T04:03:51.723Z,100730.86
2023-10-20T04:06:19.766Z,100733.52
2023-10-20T04:08:46.812Z,100733.95
2023-10-20T04:11:13.906Z,100733.81
2023-10-20T04:13:41.116Z,100736.23
2023-10-20T04:16:15.282Z,100742.07
2023-10-20T04:18:43.235Z,100747.49
2023-10-20T04:21:14.247Z,100744.38
2023-10-20T04:23:41.732Z,100740.34
2023-10-20T04:26:22.141Z,100741.97
2023-10-20T04:29:03.806Z,100740.89
2023-10-20T04:31:57.118Z,100749.20
2023-10-20T04:34:42.583Z,100753.50
2023-10-20T04:37:28.766Z,100756.31
2023-10-20T04:40:14.399Z,100762.47
2023-10-20T04:42:41.332Z,100763.27
2023-10-20T04:45:23.660Z,100752.44
2023-10-20T04:48:09.312Z,100753.77
2023-10-20T04:50:45.599Z,100744.15
2023-10-20T04:53:46.190Z,100742.30
2023-10-20T04:56:16.025Z,100738.10
2023-10-20T04:58:56.444Z,100726.77
2023-10-20T05:01:40.536Z,100715.71
2023-10-20T05:04:23.626Z,100702.08
2023-10-20T05:07:07.194Z,100704.64
2023-10-20T05:09:41.579Z,100712.89
2023-10-20T05:12:08.918Z,100719.19
2023-10-20T05:14:36.103Z,100725.66
2023-10-20T05:17:05.839Z,100730.19
2023-10-20T05:19:36.714Z,100730.77
2023-10-20T05:22:03.874Z,100730.33
2023-10-20T05:24:32.365Z,100728.64
2023-10-20T05:26:59.607Z,100723.55
2023-10-20T05:29:26.895Z,100723.58
2023-10-20T05:31:54.038Z,100719.20
2023-10-20T05:34:21.246Z,100721.67
2023-10-20T05:36:48.324Z,100722.98
2023-10-20T05:39:15.546Z,100719.15
2023-10-20T05:41:44.586Z,100723.67
2023-10-20T05:44:13.052Z,100714.91
2023-10-20T05:46:41.321Z,100707.65
2023-10-20T05:49:09.363Z,100705.98
2023-10-20T05:51:36.430Z,100703.88
2023-10-20T05:54:04.309Z,100703.71
2023-10-20T05:56:31.527Z,100701.02
2023-10-20T05:58:58.698Z,100698.33
2023-10-20T06:01:25.764Z,100699.53
2023-10-20T06:03:52.860Z,100694.95
2023-10-20T06:06:19.942Z,100692.34
2023-10-20T06:08:47.136Z,100687.09
2023-10-20T06:11:14.378Z,100689.14
2023-10-20T06:13:41.293Z,100687.59
2023-10-20T06:16:10.112Z,100689.64
2023-10-20T06:18:38.547Z,100687.17
2023-10-20T06:21:05.923Z,100684.04
2023-10-20T06:23:33.048Z,100688.04
2023-10-20T06:26:00.022Z,100690.66
2023-10-20T06:28:27.463Z,100680.95
2023-10-20T06:30:55.734Z,100676.16
2023-10-20T06:33:22.886Z,100667.14
2023-10-20T06:35:53.613Z,100664.60
2023-10-20T06:38:42.741Z,100666.48
2023-10-20T06:41:09.782Z,100670.95
2023-10-20T06:43:36.768Z,100672.36
2023-10-20T06:46:04.148Z,100676.43
2023-10-20T06:48:31.289Z,100681.89
2023-10-20T06:50:58.269Z,100683.36
2023-10-20T06:53:26.010Z,100680.85
2023-10-20T06:56:09.910Z,100670.34
2023-10-20T06:58:40.143Z,100670.73
2023-10-20T07:01:07.405Z,100662.73
2023-10-20T07:03:34.558Z,100662.20
2023-10-20T07:06:01.712Z,100665.14
2023-10-20T07:08:29.103Z,100667.93
2023-10-20T07:11:02.710Z,100672.55
2023-10-20T07:13:29.898Z,100675.76
2023-10-20T07:15:58.455Z,100673.52
2023-10-20T07:18:25.539Z,100670.06
2023-10-20T07:20:55.263Z,100666.25
2023-10-20T07:23:24.055Z,100651.98
2023-10-20T07:25:51.302Z,100649.41
2023-10-20T07:28:18.426Z,100652.84
2023-10-20T07:30:46.137Z,100650.96
2023-10-20T07:33:13.136Z,100652.23
2023-10-20T07:35:40.713Z,100654.46
2023-10-20T07:38:08.796Z,100653.68
2023-10-20T07:40:35.941Z,100654.21
2023-10-20T07:43:06.726Z,100657.61
2023-10-20T07:45:43.236Z,100655.10
2023-10-20T07:48:11.566Z,100645.83
2023-10-20T07:50:39.342Z,100647.73
2023-10-20T07:53:06.483Z,100641.85
2023-10-20T07:55:33.966Z,100639.06
2023-10-20T07:58:01.118Z,100640.34
2023-10-20T08:00:30.316Z,100636.59
2023-10-20T08:02:57.842Z,100639.95
2023-10-20T08:05:26.147Z,100639.58
2023-10-20T08:07:54.248Z,100638.07
2023-10-20T08:10:24.658Z,100642.55
2023-10-20T08:12:51.710Z,100647.01
2023-10-20T08:15:18.860Z,100652.75
2023-10-20T08:17:47.003Z,100653.05
2023-10-20T08:20:14.551Z,100657.34
2023-10-20T08:22:41.934Z,100658.11
2023-10-20T08:25:09.701Z,100657.38
2023-10-20T08:27:37.556Z,100657.55
2023-10-20T08:30:05.696Z,100659.21
2023-10-20T08:32:33.581Z,100657.95
2023-10-20T08:35:00.993Z,100649.66
2023-10-20T08:37:29.230Z,100646.13
2023-10-20T08:39:56.279Z,100645.05
2023-10-20T08:42:23.153Z,100647.20
2023-10-20T08:44:51.028Z,100648.65
2023-10-20T08:47:18.450Z,100647.55
2023-10-20T08:49:46.808Z,100647.87
2023-10-20T08:52:13.976Z,100648.15
2023-10-20T08:54:41.825Z,100647.95
2023-10-20T08:57:09.084Z,100650.63
2023-10-20T08:59:39.234Z,100650.66
2023-10-20T09:02:07.927Z,100650.92
2023-10-20T09:04:35.635Z,100646.50
2023-10-20T09:07:13.057Z,100650.06
2023-10-20T09:09:41.984Z,100656.73
2023-10-20T09:12:12.558Z,100661.02
2023-10-20T09:14:40.578Z,100655.80
2023-10-20T09:17:09.493Z,100648.88
2023-10-20T09:19:36.774Z,100642.67
2023-10-20T09:22:03.923Z,100644.71
2023-10-20T09:24:32.223Z,100650.13
2023-10-20T09:27:00.740Z,100641.68
2023-10-20T09:29:31.444Z,100638.26
2023-10-20T09:32:00.103Z,100632.62
2023-10-20T09:34:28.733Z,100626.31
2023-10-20T09:36:57.268Z,100624.28
2023-10-20T09:39:37.934Z,100624.31
2023-10-20T09:42:06.417Z,100616.53
2023-10-20T09:44:39.788Z,100610.45
2023-10-20T09:47:11.163Z,100605.91
2023-10-20T09:49:39.856Z,100594.88
2023-10-20T09:52:06.788Z,100589.37
2023-10-20T09:54:34.256Z,100584.54
2023-10-20T09:57:01.767Z,100590.43
2023-10-20T09:59:29.656Z,100588.55
2023-10-20T10:01:57.895Z,100584.69
2023-10-20T10:04:29.781Z,100582.39
2023-10-20T10:07:00.535Z,100586.25
2023-10-20T10:09:53.720Z,100585.65
2023-10-20T10:12:21.488Z,100587.38
2023-10-20T10:15:06.684Z,100579.75
2023-10-20T10:17:45.365Z,100577.01
2023-10-20T10:20:27.918Z,100569.66
2023-10-20T10:23:01.974Z,100570.29
2023-10-20T10:25:46.532Z,100569.57
2023-10-20T10:28:17.880Z,100570.30
2023-10-20T10:30:49.326Z,100567.64
2023-10-20T10:33:21.712Z,100565.59
2023-10-20T10:35:48.861Z,100559.96
2023-10-20T10:38:22.756Z,100556.69
2023-10-20T10:40:53.402Z,100550.69
2023-10-20T10:43:22.177Z,100547.33
2023-10-20T10:45:54.615Z,100541.36
2023-10-20T10:48:26.658Z,100532.51
2023-10-20T10:50:53.548Z,100538.50
2023-10-20T10:53:20.760Z,100540.19
2023-10-20T10:55:47.820Z,100539.43
2023-10-20T10:58:15.188Z,100538.60
2023-10-20T11:00:44.642Z,100534.61
2023-10-20T11:03:12.271Z,100532.86
2023-10-20T11:05:39.250Z,100525.40
2023-10-20T11:08:08.476Z,100528.05
2023-10-20T11:10:38.513Z,100528.86
2023-10-20T11:13:06.925Z,100534.68
2023-10-20T11:15:34.181Z,100536.16
2023-10-20T11:18:02.250Z,100533.42
2023-10-20T11:20:34.230Z,100533.80
2023-10-20T11:23:05.033Z,100540.48
2023-10-20T11:25:32.030Z,100539.80
2023-10-20T11:27:59.332Z,100538.05
2023-10-20T11:30:35.356Z,100539.77
2023-10-20T11:33:04.387Z,100540.22
2023-10-20T11:35:31.510Z,100546.51
2023-10-20T11:37:59.036Z,100541.20
2023-10-20T11:40:29.154Z,100543.31
2023-10-20T11:42:56.321Z,100548.05
2023-10-20T11:45:24.242Z,100547.30
2023-10-20T11:47:51.928Z,100549.23
2023-10-20T11:50:24.272Z,100554.34
2023-10-20T11:52:51.417Z,100552.95
2023-10-20T11:55:19.179Z,100552.55
2023-10-20T11:57:46.470Z,100545.79
2023-10-20T12:00:14.421Z,100545.49
2023-10-20T12:02:41.937Z,100546.45
2023-10-20T12:05:09.530Z,100541.74
2023-10-20T12:07:36.937Z,100540.20
2023-10-20T12:10:07.827Z,100543.81
2023-10-20T12:12:35.075Z,100545.71
2023-10-20T12:15:02.932Z,100543.93
2023-10-20T12:17:30.447Z,100543.96
2023-10-20T12:19:57.746Z,100544.27
2023-10-20T12:22:26.635Z,100536.98
2023-10-20T12:24:53.801Z,100537.90
2023-10-20T12:27:21.960Z,100536.70
2023-10-20T12:29:49.159Z,100527.50
2023-10-20T12:32:16.871Z,100522.27
2023-10-20T12:34:44.118Z,100519.45
2023-10-20T12:37:11.376Z,100513.90
2023-10-20T12:39:40.265Z,100508.05
2023-10-20T12:42:07.210Z,100507.18
2023-10-20T12:44:34.979Z,100513.30
2023-10-20T12:47:02.852Z,100518.37
2023-10-20T12:49:32.037Z,100522.74
2023-10-20T12:52:01.578Z,100523.77
2023-10-20T12:54:29.414Z,100518.02
2023-10-20T12:56:59.396Z,100520.58
2023-10-20T12:59:26.933Z,100517.81
2023-10-20T13:01:54.031Z,100517.61
2023-10-20T13:04:21.142Z,100518.52
2023-10-20T13:06:59.091Z,100515.14
2023-10-20T13:09:27.885Z,100515.27
2023-10-20T13:11:57.976Z,100523.36
2023-10-20T13:14:25.158Z,100527.27
2023-10-20T13:16:52.199Z,100526.52
2023-10-20T13:19:19.229Z,100523.45
2023-10-20T13:21:46.173Z,100523.98
2023-10-20T13:24:13.234Z,100518.17
2023-10-20T13:26:41.933Z,100521.57
2023-10-20T13:29:09.008Z,100515.80
2023-10-20T13:31:35.923Z,100526.51
2023-10-20T13:34:03.463Z,100524.53
2023-10-20T13:36:30.634Z,100522.92
2023-10-20T13:38:57.731Z,100524.84
2023-10-20T13:41:25.159Z,100518.30
2023-10-20T13:43:52.368Z,100512.55
2023-10-20T13:46:19.502Z,100516.56
2023-10-20T13:48:47.687Z,100518.77
2023-10-20T13:51:14.734Z,100517.86
2023-10-20T13:53:41.690Z,100515.88
2023-10-20T13:56:08.629Z,100515.63
2023-10-20T13:58:35.685Z,100510.63
2023-10-20T14:01:03.541Z,100514.90
2023-10-20T14:03:30.760Z,100517.13
2023-10-20T14:05:58.078Z,100524.34
2023-10-20T14:08:25.434Z,100527.56
2023-10-20T14:10:54.815Z,100528.54
2023-10-20T14:13:21.904Z,100525.58
2023-10-20T14:15:50.302Z,100520.31
2023-10-20T14:18:17.747Z,100520.02
2023-10-20T14:20:44.879Z,100519.39
2023-10-20T14:23:11.910Z,100519.23
2023-10-20T14:25:38.829Z,100523.16
2023-10-20T14:28:06.408Z,100520.77
2023-10-20T14:30:33.974Z,100526.70
2023-10-20T14:33:01.293Z,100529.64
2023-10-20T14:35:28.623Z,100539.11
2023-10-20T14:37:58.982Z,100534.73
2023-10-20T14:40:26.942Z,100530.84
2023-10-20T14:42:53.783Z,100534.98
2023-10-20T14:45:20.857Z,100535.68
2023-10-20T14:47:47.959Z,100540.77
2023-10-20T14:50:15.228Z,100540.17
2023-10-20T14:52:42.292Z,100537.95
2023-10-20T14:55:13.708Z,100535.27
2023-10-20T14:57:41.080Z,100528.20
2023-10-20T15:00:10.362Z,100521.36
2023-10-20T15:02:39.024Z,100521.82
2023-10-20T15:05:06.701Z,100525.33
2023-10-20T15:07:34.498Z,100525.08
2023-10-20T15:10:01.456Z,100527.34
2023-10-20T15:12:28.556Z,100531.54
2023-10-20T15:14:55.752Z,100539.40
2023-10-20T15:17:23.007Z,100543.30
2023-10-20T15:19:49.934Z,100547.48
2023-10-20T15:22:16.999Z,100548.26
2023-10-20T15:24:43.928Z,100549.38
2023-10-20T15:27:10.972Z,100557.94
2023-10-20T15:29:38.288Z,100566.52
2023-10-20T15:32:05.540Z,100578.38
2023-10-20T15:34:32.732Z,100581.63
2023-10-20T15:37:00.400Z,100585.39
2023-10-20T15:39:44.554Z,100589.16
2023-10-20T15:42:15.991Z,100598.25
2023-10-20T15:44:43.076Z,100601.31
2023-10-20T15:47:10.186Z,100593.83
2023-10-20T15:49:37.413Z,100595.86
2023-10-20T15:52:04.613Z,100598.13
2023-10-20T15:54:36.492Z,100601.17
2023-10-20T15:57:04.128Z,100604.21
2023-10-20T15:59:31.092Z,100603.48
2023-10-20T16:01:58.106Z,100601.23
2023-10-20T16:04:25.726Z,100601.23
2023-10-20T16:06:52.945Z,100603.11
2023-10-20T16:09:20.177Z,100597.77
2023-10-20T16:11:47.261Z,100596.92
2023-10-20T16:14:14.460Z,100604.96
2023-10-20T16:16:41.310Z,100601.80
2023-10-20T16:19:08.441Z,100598.73
2023-10-20T16:21:35.618Z,100595.78
2023-10-20T16:24:02.832Z,100598.63
2023-10-20T16:26:30.557Z,100607.86
2023-10-20T16:28:57.706Z,100614.61
2023-10-20T16:31:25.058Z,100615.52
2023-10-20T16:33:53.086Z,100617.46
2023-10-20T16:36:20.551Z,100617.10
2023-10-20T16:38:47.804Z,100615.83
2023-10-20T16:41:15.067Z,100608.39
2023-10-20T16:43:42.144Z,100618.12
2023-10-20T16:46:09.409Z,100619.23
2023-10-20T16:48:36.589Z,100618.09
2023-10-20T16:51:04.083Z,100621.48
2023-10-20T16:53:31.020Z,100625.91
2023-10-20T16:55:59.570Z,100627.88
2023-10-20T16:58:27.766Z,100625.67
2023-10-20T17:01:01.802Z,100622.52
2023-10-20T17:03:29.358Z,100621.71
2023-10-20T17:05:56.569Z,100627.83
2023-10-20T17:08:25.728Z,100621.28
2023-10-20T17:10:54.279Z,100619.50
2023-10-20T17:13:22.040Z,100622.52
2023-10-20T17:15:49.228Z,100619.68
2023-10-20T17:18:16.493Z,100621.83
2023-10-20T17:20:43.604Z,100621.85
2023-10-20T17:23:11.136Z,100622.95
2023-10-20T17:25:38.992Z,100624.92
2023-10-20T17:28:06.145Z,100623.55
2023-10-20T17:30:36.367Z,100617.99
2023-10-20T17:33:06.754Z,100610.77
2023-10-20T17:35:34.615Z,100611.69
2023-10-20T17:38:01.832Z,100611.45
2023-10-20T17:40:29.263Z,100611.45
2023-10-20T17:42:56.420Z,100608.88
2023-10-20T17:45:23.874Z,100602.29
2023-10-20T17:47:51.164Z,100600.71
2023-10-20T17:50:18.471Z,100604.63
2023-10-20T17:52:46.036Z,100605.62
2023-10-20T17:55:13.190Z,100605.80
2023-10-20T17:57:40.131Z,100609.52
2023-10-20T18:00:12.434Z,100615.92
2023-10-20T18:02:43.311Z,100621.11
2023-10-20T18:05:12.050Z,100627.45
2023-10-20T18:07:41.341Z,100628.90
2023-10-20T18:10:08.887Z,100628.94
2023-10-20T18:12:36.254Z,100635.36
2023-10-20T18:15:04.198Z,100637.98
2023-10-20T18:17:31.461Z,100639.71
2023-10-20T18:19:58.710Z,100641.33
2023-10-20T18:22:26.359Z,100652.41
2023-10-20T18:24:53.413Z,100657.25
2023-10-20T18:27:20.359Z,100654.27
2023-10-20T18:29:47.856Z,100657.11
2023-10-20T18:32:14.967Z,100656.39
2023-10-20T18:34:42.252Z,100653.04
2023-10-20T18:37:09.298Z,100651.40
2023-10-20T18:39:36.569Z,100649.70
2023-10-20T18:42:05.140Z,100653.92
2023-10-20T18:44:32.396Z,100662.02
2023-10-20T18:46:59.832Z,100660.92
2023-10-20T18:49:27.680Z,100660.63
2023-10-20T18:51:54.834Z,100657.60
2023-10-20T18:54:22.202Z,100657.19
2023-10-20T18:56:49.235Z,100655.19
2023-10-20T18:59:16.470Z,100652.04
2023-10-20T19:01:43.576Z,100647.55
2023-10-20T19:04:10.507Z,100643.45
2023-10-20T19:06:37.731Z,100648.66
2023-10-20T19:09:05.007Z,100646.33
2023-10-20T19:11:32.562Z,100646.63
2023-10-20T19:13:59.693Z,100647.46
2023-10-20T19:16:32.285Z,100652.20
2023-10-20T19:18:59.410Z,100656.23
2023-10-20T19:21:26.668Z,100662.75
2023-10-20T19:23:53.765Z,100667.55
2023-10-20T19:26:21.267Z,100675.70
2023-10-20T19:28:48.525Z,100677.10
2023-10-20T19:31:15.613Z,100676.94
2023-10-20T19:33:44.647Z,100676.23
2023-10-20T19:36:11.953Z,100675.48
2023-10-20T19:38:39.462Z,100671.08
2023-10-20T19:41:08.770Z,100668.79
2023-10-20T19:43:36.126Z,100668.99
2023-10-20T19:46:03.168Z,100668.65
2023-10-20T19:48:33.678Z,100668.45
2023-10-20T19:51:01.002Z,100668.27
2023-10-20T19:53:28.210Z,100670.27
2023-10-20T19:55:55.455Z,100669.42
2023-10-20T19:58:22.499Z,100670.70
2023-10-20T20:00:49.619Z,100671.63
2023-10-20T20:03:17.229Z,100669.34
2023-10-20T20:05:44.397Z,100667.88
2023-10-20T20:08:11.403Z,100658.58
2023-10-20T20:10:38.354Z,100654.89
2023-10-20T20:13:05.296Z,100648.16
2023-10-20T20:15:32.443Z,100647.02
2023-10-20T20:17:59.720Z,100648.29
2023-10-20T20:20:26.994Z,100649.68
2023-10-20T20:22:53.910Z,100650.99
2023-10-20T20:25:20.985Z,100646.98
2023-10-20T20:27:48.089Z,100641.30
2023-10-20T20:30:15.282Z,100641.52
2023-10-20T20:32:44.135Z,100639.29
2023-10-20T20:35:11.076Z,100638.66
2023-10-20T20:37:38.321Z,100637.09
2023-10-20T20:40:08.151Z,100633.25
2023-10-20T20:42:36.006Z,100637.71
2023-10-20T20:45:03.734Z,100642.77
2023-10-20T20:47:31.165Z,100638.60
2023-10-20T20:49:59.117Z,100635.02
2023-10-20T20:52:27.058Z,100629.60
2023-10-20T20:54:56.549Z,100626.66
2023-10-20T20:57:23.794Z,100640.17
2023-10-20T20:59:50.995Z,100644.42
2023-10-20T21:02:18.113Z,100638.46
2023-10-20T21:04:45.706Z,100640.80
2023-10-20T21:07:12.621Z,100643.69
2023-10-20T21:09:39.692Z,100647.61
2023-10-20T21:12:07.592Z,100649.10
2023-10-20T21:14:34.665Z,100653.70
2023-10-20T21:17:01.883Z,100656.94
2023-10-20T21:19:29.796Z,100658.65
2023-10-20T21:21:56.755Z,100657.87
2023-10-20T21:24:23.771Z,100668.02
2023-10-20T21:26:53.119Z,100665.69
2023-10-20T21:29:20.417Z,100662.79
2023-10-20T21:31:47.382Z,100662.62
2023-10-20T21:34:14.818Z,100659.88
2023-10-20T21:36:41.668Z,100663.04
2023-10-20T21:39:13.037Z,100660.39
2023-10-20T21:41:40.382Z,100662.44
2023-10-20T21:44:07.816Z,100661.32
2023-10-20T21:46:37.008Z,100662.24
2023-10-20T21:49:04.257Z,100664.56
2023-10-20T21:51:31.916Z,100660.48
2023-10-20T21:53:59.283Z,100659.84
2023-10-20T21:56:26.627Z,100655.09
2023-10-20T21:58:53.472Z,100658.52
2023-10-20T22:01:20.416Z,100653.92
2023-10-20T22:03:47.311Z,100653.05
2023-10-20T22:06:16.928Z,100649.73
2023-10-20T22:08:43.961Z,100652.96
2023-10-20T22:11:11.231Z,100652.50
2023-10-20T22:13:38.115Z,100653.78
2023-10-20T22:16:05.865Z,100653.30
2023-10-20T22:18:33.209Z,100647.85
2023-10-20T22:21:00.343Z,100653.13
2023-10-20T22:23:27.425Z,100647.75
2023-10-20T22:25:54.574Z,100653.39
2023-10-20T22:28:22.055Z,100654.41
2023-10-20T22:30:49.324Z,100650.31
2023-10-20T22:33:16.541Z,100650.64
2023-10-20T22:35:43.869Z,100646.53
2023-10-20T22:38:10.937Z,100646.33
2023-10-20T22:40:37.833Z,100643.48
2023-10-20T22:43:04.676Z,100647.20
2023-10-20T22:45:31.569Z,100653.53
2023-10-20T22:47:58.502Z,100648.19
2023-10-20T22:50:25.660Z,100646.86
2023-10-20T22:52:52.611Z,100645.76
2023-10-20T22:55:19.576Z,100644.60
2023-10-20T22:57:46.599Z,100640.31
2023-10-20T23:00:14.925Z,100644.34
2023-10-20T23:02:42.099Z,100646.65
2023-10-20T23:05:10.233Z,100648.04
2023-10-20T23:07:37.489Z,100651.65
2023-10-20T23:10:05.113Z,100653.64
2023-10-20T23:12:33.706Z,100654.59
2023-10-20T23:15:00.774Z,100656.25
2023-10-20T23:17:27.854Z,100662.28
2023-10-20T23:19:55.214Z,100665.88
2023-10-20T23:22:22.103Z,100667.15
2023-10-20T23:24:49.006Z,100670.80
2023-10-20T23:27:16.001Z,100667.98
2023-10-20T23:29:43.396Z,100665.95
2023-10-20T23:32:10.602Z,100666.88
2023-10-20T23:34:37.537Z,100667.04
2023-10-20T23:37:05.202Z,100669.03
2023-10-20T23:39:33.768Z,100673.09
2023-10-20T23:42:01.407Z,100675.45
2023-10-20T23:44:30.470Z,100680.60
2023-10-20T23:46:57.489Z,100678.94
2023-10-20T23:49:24.657Z,100679.52
2023-10-20T23:51:51.999Z,100676.71
2023-10-20T23:54:18.849Z,100673.96
2023-10-20T23:56:45.918Z,100675.02
2023-10-20T23:59:12.860Z,100676.48
